Terminal Aerodrome Forecast
Issued by NWS

Home | Current Version | Previous Version | Text Only | Print | Product List | Glossary On
Versions: 1 2 3 4 5 6 7 8 9 10 11 12 13 14
561
FTUS41 KBTV 272320
TAFSLK
TAF
KSLK 272320Z 2800/2824 VRB03KT P6SM FEW250
     FM280700 00000KT 1SM BR BKN008
     FM281200 23004KT P6SM BKN045
     FM281600 24005KT P6SM VCSH BKN040
     FM282100 30005KT P6SM VCSH BKN045=

USA.gov is the U.S. government's official web portal to all federal, state and local government web resources and services.